METAR Data
IDs: Format: Raw Decoded Include TAF

Data at: 2151 UTC 26 May 2019

METAR for:KCVG (Cincinnati Intl, KY, US)
Text:KCVG 262059Z 19004KT 10SM -RA SCT029 OVC100 21/19 A3004 RMK AO2 LTG DSNT E AND SE TSE53 CIG 080 36R P0000 T02060189
Temperature: 20.6°C ( 69°F)
Dewpoint: 18.9°C ( 66°F) [RH = 90%]
Pressure (altimeter):30.04 inches Hg (1017.4 mb)
Winds:from the S (190 degrees) at 5 MPH (4 knots; 2.1 m/s)
Visibility:10 or more sm (16+ km)
Ceiling:10000 feet AGL
Clouds: scattered clouds at 2900 feet AGL, overcast cloud deck at 10000 feet AGL
Weather:-RA (light rain)